sensor_id;sensor_type;location;lat;lon;timestamp;P1;durP1;ratioP1;P2;durP2;ratioP2
6354;SDS011;3210;48.708;9.030;2024-03-06T09:17:20;7.83;;;3.90;;
6354;SDS011;3210;48.708;9.030;2024-03-06T09:20:14;4.63;;;3.10;;
6354;SDS011;3210;48.708;9.030;2024-03-06T09:28:34;4.27;;;3.60;;
6354;SDS011;3210;48.708;9.030;2024-03-06T10:19:28;15.53;;;6.97;;
6354;SDS011;3210;48.708;9.030;2024-03-06T10:22:23;10.10;;;6.97;;
6354;SDS011;3210;48.708;9.030;2024-03-06T10:25:30;11.73;;;7.03;;
6354;SDS011;3210;48.708;9.030;2024-03-06T10:28:24;8.93;;;6.60;;
6354;SDS011;3210;48.708;9.030;2024-03-06T10:36:35;12.50;;;7.67;;
6354;SDS011;3210;48.708;9.030;2024-03-06T10:39:16;8.03;;;6.40;;
6354;SDS011;3210;48.708;9.030;2024-03-06T10:47:01;25.37;;;8.63;;
6354;SDS011;3210;48.708;9.030;2024-03-06T10:55:13;11.60;;;8.50;;
6354;SDS011;3210;48.708;9.030;2024-03-06T10:57:44;14.37;;;10.37;;
6354;SDS011;3210;48.708;9.030;2024-03-06T11:06:25;14.97;;;10.30;;
6354;SDS011;3210;48.708;9.030;2024-03-06T11:09:21;13.17;;;10.73;;
6354;SDS011;3210;48.708;9.030;2024-03-06T11:11:54;15.57;;;11.77;;
6354;SDS011;3210;48.708;9.030;2024-03-06T11:14:37;17.17;;;11.73;;
6354;SDS011;3210;48.708;9.030;2024-03-06T11:20:25;16.90;;;12.13;;
6354;SDS011;3210;48.708;9.030;2024-03-06T11:23:02;19.20;;;12.87;;
6354;SDS011;3210;48.708;9.030;2024-03-06T11:28:47;18.50;;;12.43;;
6354;SDS011;3210;48.708;9.030;2024-03-06T11:31:33;19.50;;;14.20;;
6354;SDS011;3210;48.708;9.030;2024-03-06T11:34:06;20.20;;;14.10;;
6354;SDS011;3210;48.708;9.030;2024-03-06T11:36:41;22.90;;;14.70;;
6354;SDS011;3210;48.708;9.030;2024-03-06T11:39:10;20.10;;;14.73;;
6354;SDS011;3210;48.708;9.030;2024-03-06T11:41:50;20.63;;;14.57;;
6354;SDS011;3210;48.708;9.030;2024-03-06T11:44:35;23.13;;;14.93;;
6354;SDS011;3210;48.708;9.030;2024-03-06T11:47:03;30.53;;;16.97;;
6354;SDS011;3210;48.708;9.030;2024-03-06T11:49:34;21.77;;;15.23;;
6354;SDS011;3210;48.708;9.030;2024-03-06T11:52:05;23.63;;;14.80;;
6354;SDS011;3210;48.708;9.030;2024-03-06T11:54:37;28.10;;;17.20;;
6354;SDS011;3210;48.708;9.030;2024-03-06T11:57:06;20.60;;;15.07;;
6354;SDS011;3210;48.708;9.030;2024-03-06T11:59:37;25.30;;;15.83;;
6354;SDS011;3210;48.708;9.030;2024-03-06T12:02:05;24.87;;;15.33;;
6354;SDS011;3210;48.708;9.030;2024-03-06T12:04:36;30.80;;;17.40;;
6354;SDS011;3210;48.708;9.030;2024-03-06T12:10:00;21.80;;;15.37;;
6354;SDS011;3210;48.708;9.030;2024-03-06T12:12:36;25.40;;;16.20;;
6354;SDS011;3210;48.708;9.030;2024-03-06T12:15:14;24.57;;;15.47;;
6354;SDS011;3210;48.708;9.030;2024-03-06T12:18:01;20.93;;;14.10;;
6354;SDS011;3210;48.708;9.030;2024-03-06T12:20:49;20.33;;;15.20;;
6354;SDS011;3210;48.708;9.030;2024-03-06T12:23:26;27.37;;;15.80;;
6354;SDS011;3210;48.708;9.030;2024-03-06T12:26:02;23.77;;;15.97;;
6354;SDS011;3210;48.708;9.030;2024-03-06T12:28:37;26.17;;;15.90;;
6354;SDS011;3210;48.708;9.030;2024-03-06T12:31:27;21.83;;;14.37;;
6354;SDS011;3210;48.708;9.030;2024-03-06T12:34:23;27.00;;;16.20;;
6354;SDS011;3210;48.708;9.030;2024-03-06T12:37:02;24.90;;;16.90;;
6354;SDS011;3210;48.708;9.030;2024-03-06T12:43:13;23.23;;;15.00;;
6354;SDS011;3210;48.708;9.030;2024-03-06T12:45:47;19.80;;;14.30;;
6354;SDS011;3210;48.708;9.030;2024-03-06T12:48:22;19.60;;;13.80;;
6354;SDS011;3210;48.708;9.030;2024-03-06T12:50:58;20.60;;;13.77;;
6354;SDS011;3210;48.708;9.030;2024-03-06T12:53:31;17.97;;;14.00;;
6354;SDS011;3210;48.708;9.030;2024-03-06T12:56:05;23.70;;;16.13;;
6354;SDS011;3210;48.708;9.030;2024-03-06T12:58:42;23.60;;;14.00;;
6354;SDS011;3210;48.708;9.030;2024-03-06T13:01:23;24.93;;;14.27;;
6354;SDS011;3210;48.708;9.030;2024-03-06T13:03:51;20.70;;;14.40;;
6354;SDS011;3210;48.708;9.030;2024-03-06T13:06:23;18.87;;;12.10;;
6354;SDS011;3210;48.708;9.030;2024-03-06T13:08:53;22.23;;;14.33;;
6354;SDS011;3210;48.708;9.030;2024-03-06T13:11:40;21.00;;;15.00;;
6354;SDS011;3210;48.708;9.030;2024-03-06T13:14:22;20.87;;;14.40;;
6354;SDS011;3210;48.708;9.030;2024-03-06T13:16:59;22.30;;;15.80;;
6354;SDS011;3210;48.708;9.030;2024-03-06T13:19:33;22.13;;;14.70;;
6354;SDS011;3210;48.708;9.030;2024-03-06T13:22:17;18.50;;;13.90;;
6354;SDS011;3210;48.708;9.030;2024-03-06T13:25:51;19.80;;;13.40;;
6354;SDS011;3210;48.708;9.030;2024-03-06T13:28:02;21.70;;;14.10;;
6354;SDS011;3210;48.708;9.030;2024-03-06T13:30:50;19.73;;;13.27;;
6354;SDS011;3210;48.708;9.030;2024-03-06T13:33:56;23.80;;;15.50;;
6354;SDS011;3210;48.708;9.030;2024-03-06T13:36:29;17.13;;;10.43;;
6354;SDS011;3210;48.708;9.030;2024-03-06T13:39:00;22.23;;;15.70;;
6354;SDS011;3210;48.708;9.030;2024-03-06T13:41:45;22.47;;;13.53;;
6354;SDS011;3210;48.708;9.030;2024-03-06T13:44:47;22.33;;;14.00;;
6354;SDS011;3210;48.708;9.030;2024-03-06T13:47:20;29.30;;;15.77;;
6354;SDS011;3210;48.708;9.030;2024-03-06T13:50:18;18.17;;;13.00;;
6354;SDS011;3210;48.708;9.030;2024-03-06T13:53:28;22.00;;;14.93;;
6354;SDS011;3210;48.708;9.030;2024-03-06T13:56:14;20.50;;;14.00;;
6354;SDS011;3210;48.708;9.030;2024-03-06T13:59:11;18.50;;;13.30;;
6354;SDS011;3210;48.708;9.030;2024-03-06T14:01:44;19.53;;;15.00;;
6354;SDS011;3210;48.708;9.030;2024-03-06T14:04:54;22.00;;;13.97;;
6354;SDS011;3210;48.708;9.030;2024-03-06T14:07:33;19.20;;;13.43;;
6354;SDS011;3210;48.708;9.030;2024-03-06T14:10:45;20.73;;;15.43;;
6354;SDS011;3210;48.708;9.030;2024-03-06T14:13:33;29.73;;;15.70;;
6354;SDS011;3210;48.708;9.030;2024-03-06T14:16:06;21.83;;;14.73;;
6354;SDS011;3210;48.708;9.030;2024-03-06T14:18:56;22.50;;;15.60;;
6354;SDS011;3210;48.708;9.030;2024-03-06T14:21:29;24.93;;;15.40;;
6354;SDS011;3210;48.708;9.030;2024-03-06T14:23:59;18.93;;;13.80;;
6354;SDS011;3210;48.708;9.030;2024-03-06T14:26:35;23.50;;;15.87;;
6354;SDS011;3210;48.708;9.030;2024-03-06T14:29:21;21.03;;;14.00;;
6354;SDS011;3210;48.708;9.030;2024-03-06T14:31:56;18.10;;;14.40;;
6354;SDS011;3210;48.708;9.030;2024-03-06T14:34:26;22.00;;;15.33;;
6354;SDS011;3210;48.708;9.030;2024-03-06T14:40:22;21.63;;;14.93;;
6354;SDS011;3210;48.708;9.030;2024-03-06T14:47:02;21.50;;;14.80;;
6354;SDS011;3210;48.708;9.030;2024-03-06T14:49:07;25.20;;;16.17;;
6354;SDS011;3210;48.708;9.030;2024-03-06T15:01:58;19.43;;;14.40;;
6354;SDS011;3210;48.708;9.030;2024-03-06T15:04:39;22.93;;;14.63;;
6354;SDS011;3210;48.708;9.030;2024-03-06T15:07:09;20.67;;;14.67;;
6354;SDS011;3210;48.708;9.030;2024-03-06T15:09:51;20.93;;;13.30;;
6354;SDS011;3210;48.708;9.030;2024-03-06T15:12:25;25.47;;;15.63;;
6354;SDS011;3210;48.708;9.030;2024-03-06T15:15:06;21.17;;;13.67;;
6354;SDS011;3210;48.708;9.030;2024-03-06T15:17:36;19.73;;;13.87;;
6354;SDS011;3210;48.708;9.030;2024-03-06T15:20:04;17.17;;;12.70;;
6354;SDS011;3210;48.708;9.030;2024-03-06T15:22:34;19.67;;;13.30;;
6354;SDS011;3210;48.708;9.030;2024-03-06T15:25:06;19.80;;;13.63;;
6354;SDS011;3210;48.708;9.030;2024-03-06T15:27:35;21.23;;;13.63;;
6354;SDS011;3210;48.708;9.030;2024-03-06T15:30:14;16.00;;;12.93;;
6354;SDS011;3210;48.708;9.030;2024-03-06T15:32:47;18.27;;;12.57;;
6354;SDS011;3210;48.708;9.030;2024-03-06T15:35:17;17.50;;;12.17;;
6354;SDS011;3210;48.708;9.030;2024-03-06T15:37:44;18.00;;;12.40;;
6354;SDS011;3210;48.708;9.030;2024-03-06T15:40:13;18.80;;;12.33;;
6354;SDS011;3210;48.708;9.030;2024-03-06T15:42:43;22.30;;;13.07;;
6354;SDS011;3210;48.708;9.030;2024-03-06T15:46:14;17.10;;;11.63;;
6354;SDS011;3210;48.708;9.030;2024-03-06T15:48:44;17.33;;;13.70;;
6354;SDS011;3210;48.708;9.030;2024-03-06T15:51:18;16.90;;;12.77;;
6354;SDS011;3210;48.708;9.030;2024-03-06T15:54:05;18.43;;;12.37;;
6354;SDS011;3210;48.708;9.030;2024-03-06T15:56:38;21.93;;;12.63;;
6354;SDS011;3210;48.708;9.030;2024-03-06T15:59:20;22.97;;;13.70;;
6354;SDS011;3210;48.708;9.030;2024-03-06T16:01:47;22.90;;;15.37;;
6354;SDS011;3210;48.708;9.030;2024-03-06T16:04:16;22.80;;;14.93;;
6354;SDS011;3210;48.708;9.030;2024-03-06T16:06:43;24.80;;;16.13;;
6354;SDS011;3210;48.708;9.030;2024-03-06T16:09:11;26.50;;;14.33;;
6354;SDS011;3210;48.708;9.030;2024-03-06T16:11:38;24.53;;;15.50;;
6354;SDS011;3210;48.708;9.030;2024-03-06T16:14:05;26.83;;;15.67;;
6354;SDS011;3210;48.708;9.030;2024-03-06T16:16:33;26.47;;;16.00;;
6354;SDS011;3210;48.708;9.030;2024-03-06T16:18:59;27.30;;;16.93;;
6354;SDS011;3210;48.708;9.030;2024-03-06T16:21:28;34.43;;;19.50;;
6354;SDS011;3210;48.708;9.030;2024-03-06T16:23:55;27.43;;;16.60;;
6354;SDS011;3210;48.708;9.030;2024-03-06T16:26:27;28.27;;;16.63;;
6354;SDS011;3210;48.708;9.030;2024-03-06T16:28:54;28.83;;;18.50;;
6354;SDS011;3210;48.708;9.030;2024-03-06T16:31:26;24.73;;;16.13;;
6354;SDS011;3210;48.708;9.030;2024-03-06T16:33:53;29.53;;;17.43;;
6354;SDS011;3210;48.708;9.030;2024-03-06T16:36:21;28.57;;;16.77;;
6354;SDS011;3210;48.708;9.030;2024-03-06T16:38:50;30.30;;;18.20;;
6354;SDS011;3210;48.708;9.030;2024-03-06T16:41:17;33.53;;;18.93;;
6354;SDS011;3210;48.708;9.030;2024-03-06T16:43:45;30.67;;;18.67;;
6354;SDS011;3210;48.708;9.030;2024-03-06T16:46:12;27.83;;;17.20;;
6354;SDS011;3210;48.708;9.030;2024-03-06T16:48:50;31.90;;;17.73;;
6354;SDS011;3210;48.708;9.030;2024-03-06T16:51:18;31.37;;;20.07;;
6354;SDS011;3210;48.708;9.030;2024-03-06T16:53:46;30.33;;;18.60;;
6354;SDS011;3210;48.708;9.030;2024-03-06T16:56:15;28.90;;;18.17;;
6354;SDS011;3210;48.708;9.030;2024-03-06T16:58:56;31.07;;;18.33;;
6354;SDS011;3210;48.708;9.030;2024-03-06T17:01:23;33.27;;;20.10;;
6354;SDS011;3210;48.708;9.030;2024-03-06T17:03:50;33.97;;;19.10;;
6354;SDS011;3210;48.708;9.030;2024-03-06T17:06:21;31.53;;;19.10;;
6354;SDS011;3210;48.708;9.030;2024-03-06T17:09:26;29.20;;;18.50;;
6354;SDS011;3210;48.708;9.030;2024-03-06T17:11:55;36.07;;;21.20;;
6354;SDS011;3210;48.708;9.030;2024-03-06T17:14:24;24.97;;;17.07;;
6354;SDS011;3210;48.708;9.030;2024-03-06T17:16:55;50.30;;;23.17;;
6354;SDS011;3210;48.708;9.030;2024-03-06T17:19:30;47.17;;;22.80;;
6354;SDS011;3210;48.708;9.030;2024-03-06T17:22:05;37.50;;;23.00;;
6354;SDS011;3210;48.708;9.030;2024-03-06T17:24:33;33.63;;;20.10;;
6354;SDS011;3210;48.708;9.030;2024-03-06T17:27:03;40.27;;;22.57;;
6354;SDS011;3210;48.708;9.030;2024-03-06T17:29:31;34.23;;;20.97;;
6354;SDS011;3210;48.708;9.030;2024-03-06T17:32:00;36.60;;;21.90;;
6354;SDS011;3210;48.708;9.030;2024-03-06T17:34:39;39.77;;;23.87;;
6354;SDS011;3210;48.708;9.030;2024-03-06T17:37:31;38.80;;;20.00;;
6354;SDS011;3210;48.708;9.030;2024-03-06T17:40:05;33.80;;;20.27;;
6354;SDS011;3210;48.708;9.030;2024-03-06T17:42:37;37.40;;;21.30;;
6354;SDS011;3210;48.708;9.030;2024-03-06T17:45:05;36.37;;;20.50;;
6354;SDS011;3210;48.708;9.030;2024-03-06T17:47:33;38.60;;;22.30;;
6354;SDS011;3210;48.708;9.030;2024-03-06T17:50:18;40.90;;;22.50;;
6354;SDS011;3210;48.708;9.030;2024-03-06T17:52:50;40.33;;;22.90;;
6354;SDS011;3210;48.708;9.030;2024-03-06T17:55:18;36.80;;;21.80;;
6354;SDS011;3210;48.708;9.030;2024-03-06T17:57:47;32.07;;;21.13;;
6354;SDS011;3210;48.708;9.030;2024-03-06T18:00:17;40.47;;;23.13;;
6354;SDS011;3210;48.708;9.030;2024-03-06T18:03:25;37.83;;;22.90;;
6354;SDS011;3210;48.708;9.030;2024-03-06T18:05:53;38.03;;;21.70;;
6354;SDS011;3210;48.708;9.030;2024-03-06T18:08:19;36.80;;;23.70;;
6354;SDS011;3210;48.708;9.030;2024-03-06T18:10:46;42.83;;;25.57;;
6354;SDS011;3210;48.708;9.030;2024-03-06T18:13:15;38.90;;;21.20;;
6354;SDS011;3210;48.708;9.030;2024-03-06T18:15:42;46.13;;;22.83;;
6354;SDS011;3210;48.708;9.030;2024-03-06T18:18:09;39.70;;;23.03;;
6354;SDS011;3210;48.708;9.030;2024-03-06T18:20:36;39.43;;;22.60;;
6354;SDS011;3210;48.708;9.030;2024-03-06T18:23:05;43.20;;;23.57;;
6354;SDS011;3210;48.708;9.030;2024-03-06T18:25:49;37.77;;;22.63;;
6354;SDS011;3210;48.708;9.030;2024-03-06T18:28:19;40.50;;;22.33;;
6354;SDS011;3210;48.708;9.030;2024-03-06T18:30:46;38.83;;;21.83;;
6354;SDS011;3210;48.708;9.030;2024-03-06T18:33:14;48.53;;;26.10;;
6354;SDS011;3210;48.708;9.030;2024-03-06T18:35:41;33.73;;;20.60;;
6354;SDS011;3210;48.708;9.030;2024-03-06T18:38:09;37.63;;;22.20;;
6354;SDS011;3210;48.708;9.030;2024-03-06T18:40:36;38.20;;;21.10;;
6354;SDS011;3210;48.708;9.030;2024-03-06T18:43:05;45.40;;;26.57;;
6354;SDS011;3210;48.708;9.030;2024-03-06T18:45:37;35.50;;;21.57;;
6354;SDS011;3210;48.708;9.030;2024-03-06T18:48:05;56.63;;;29.17;;
6354;SDS011;3210;48.708;9.030;2024-03-06T18:50:32;37.87;;;22.03;;
6354;SDS011;3210;48.708;9.030;2024-03-06T18:52:59;38.40;;;21.57;;
6354;SDS011;3210;48.708;9.030;2024-03-06T18:55:27;37.60;;;22.47;;
6354;SDS011;3210;48.708;9.030;2024-03-06T18:57:54;56.73;;;29.20;;
6354;SDS011;3210;48.708;9.030;2024-03-06T19:00:22;49.10;;;28.83;;
6354;SDS011;3210;48.708;9.030;2024-03-06T19:02:51;42.50;;;24.47;;
6354;SDS011;3210;48.708;9.030;2024-03-06T19:05:18;31.20;;;21.10;;
6354;SDS011;3210;48.708;9.030;2024-03-06T19:08:01;38.23;;;21.37;;
6354;SDS011;3210;48.708;9.030;2024-03-06T19:10:30;40.57;;;23.73;;
6354;SDS011;3210;48.708;9.030;2024-03-06T19:12:57;53.43;;;24.90;;
6354;SDS011;3210;48.708;9.030;2024-03-06T19:15:24;44.37;;;24.60;;
6354;SDS011;3210;48.708;9.030;2024-03-06T19:17:53;46.17;;;21.80;;
6354;SDS011;3210;48.708;9.030;2024-03-06T19:20:21;49.13;;;24.67;;
6354;SDS011;3210;48.708;9.030;2024-03-06T19:22:48;44.87;;;24.57;;
6354;SDS011;3210;48.708;9.030;2024-03-06T19:25:15;47.33;;;24.60;;
6354;SDS011;3210;48.708;9.030;2024-03-06T19:27:42;49.80;;;27.07;;
6354;SDS011;3210;48.708;9.030;2024-03-06T19:30:10;47.40;;;25.90;;
6354;SDS011;3210;48.708;9.030;2024-03-06T19:32:39;50.60;;;27.63;;
6354;SDS011;3210;48.708;9.030;2024-03-06T19:35:08;49.93;;;26.80;;
6354;SDS011;3210;48.708;9.030;2024-03-06T19:37:36;60.20;;;30.10;;
6354;SDS011;3210;48.708;9.030;2024-03-06T19:40:04;47.13;;;26.80;;
6354;SDS011;3210;48.708;9.030;2024-03-06T19:42:33;48.00;;;26.13;;
6354;SDS011;3210;48.708;9.030;2024-03-06T19:45:01;48.63;;;25.70;;
6354;SDS011;3210;48.708;9.030;2024-03-06T19:47:28;46.83;;;27.10;;
6354;SDS011;3210;48.708;9.030;2024-03-06T19:49:56;50.03;;;24.63;;
6354;SDS011;3210;48.708;9.030;2024-03-06T19:52:39;61.60;;;28.17;;
6354;SDS011;3210;48.708;9.030;2024-03-06T19:55:14;52.80;;;28.97;;
6354;SDS011;3210;48.708;9.030;2024-03-06T19:57:41;47.03;;;26.20;;
6354;SDS011;3210;48.708;9.030;2024-03-06T20:00:09;54.10;;;28.50;;
6354;SDS011;3210;48.708;9.030;2024-03-06T20:02:39;50.47;;;26.27;;
6354;SDS011;3210;48.708;9.030;2024-03-06T20:05:06;44.40;;;26.87;;
6354;SDS011;3210;48.708;9.030;2024-03-06T20:07:34;46.97;;;26.40;;
6354;SDS011;3210;48.708;9.030;2024-03-06T20:10:02;58.53;;;29.47;;
6354;SDS011;3210;48.708;9.030;2024-03-06T20:12:29;53.37;;;26.90;;
6354;SDS011;3210;48.708;9.030;2024-03-06T20:14:58;51.67;;;27.60;;
6354;SDS011;3210;48.708;9.030;2024-03-06T20:17:25;47.40;;;25.97;;
6354;SDS011;3210;48.708;9.030;2024-03-06T20:19:53;53.53;;;27.70;;
6354;SDS011;3210;48.708;9.030;2024-03-06T20:22:21;49.77;;;26.43;;
6354;SDS011;3210;48.708;9.030;2024-03-06T20:24:49;52.77;;;26.87;;
6354;SDS011;3210;48.708;9.030;2024-03-06T20:27:18;46.43;;;25.20;;
6354;SDS011;3210;48.708;9.030;2024-03-06T20:29:45;47.67;;;26.50;;
6354;SDS011;3210;48.708;9.030;2024-03-06T20:32:12;53.60;;;26.43;;
6354;SDS011;3210;48.708;9.030;2024-03-06T20:34:40;48.70;;;27.07;;
6354;SDS011;3210;48.708;9.030;2024-03-06T20:37:08;54.53;;;27.40;;
6354;SDS011;3210;48.708;9.030;2024-03-06T20:39:36;40.37;;;24.47;;
6354;SDS011;3210;48.708;9.030;2024-03-06T20:42:04;42.47;;;22.60;;
6354;SDS011;3210;48.708;9.030;2024-03-06T20:44:35;52.40;;;26.33;;
6354;SDS011;3210;48.708;9.030;2024-03-06T20:47:03;46.70;;;25.50;;
6354;SDS011;3210;48.708;9.030;2024-03-06T20:49:33;48.63;;;24.73;;
6354;SDS011;3210;48.708;9.030;2024-03-06T20:52:00;62.50;;;29.87;;
6354;SDS011;3210;48.708;9.030;2024-03-06T20:54:27;59.80;;;27.90;;
6354;SDS011;3210;48.708;9.030;2024-03-06T20:56:55;48.10;;;25.27;;
6354;SDS011;3210;48.708;9.030;2024-03-06T20:59:43;50.30;;;27.00;;
6354;SDS011;3210;48.708;9.030;2024-03-06T21:08:52;47.97;;;24.90;;
6354;SDS011;3210;48.708;9.030;2024-03-06T21:11:19;50.80;;;26.57;;
6354;SDS011;3210;48.708;9.030;2024-03-06T21:13:56;49.50;;;26.60;;
6354;SDS011;3210;48.708;9.030;2024-03-06T21:16:23;49.83;;;26.00;;
6354;SDS011;3210;48.708;9.030;2024-03-06T21:18:50;65.07;;;29.60;;
6354;SDS011;3210;48.708;9.030;2024-03-06T21:21:19;52.40;;;26.23;;
6354;SDS011;3210;48.708;9.030;2024-03-06T21:23:46;62.80;;;29.30;;
6354;SDS011;3210;48.708;9.030;2024-03-06T21:26:20;54.17;;;27.40;;
6354;SDS011;3210;48.708;9.030;2024-03-06T21:28:47;50.30;;;27.43;;
6354;SDS011;3210;48.708;9.030;2024-03-06T21:31:18;54.63;;;27.70;;
6354;SDS011;3210;48.708;9.030;2024-03-06T21:33:47;56.13;;;27.20;;
6354;SDS011;3210;48.708;9.030;2024-03-06T21:36:14;47.17;;;25.10;;
6354;SDS011;3210;48.708;9.030;2024-03-06T21:38:47;53.30;;;28.60;;
6354;SDS011;3210;48.708;9.030;2024-03-06T21:41:16;49.73;;;28.37;;
6354;SDS011;3210;48.708;9.030;2024-03-06T21:43:46;50.63;;;27.20;;
6354;SDS011;3210;48.708;9.030;2024-03-06T21:46:18;57.40;;;25.77;;
6354;SDS011;3210;48.708;9.030;2024-03-06T21:48:46;51.33;;;26.93;;
6354;SDS011;3210;48.708;9.030;2024-03-06T21:51:14;45.40;;;23.90;;
6354;SDS011;3210;48.708;9.030;2024-03-06T21:53:45;55.80;;;26.07;;
6354;SDS011;3210;48.708;9.030;2024-03-06T21:56:13;59.93;;;28.10;;
6354;SDS011;3210;48.708;9.030;2024-03-06T21:58:42;51.17;;;27.50;;
6354;SDS011;3210;48.708;9.030;2024-03-06T22:01:09;59.50;;;27.00;;
6354;SDS011;3210;48.708;9.030;2024-03-06T22:03:38;53.37;;;28.43;;
6354;SDS011;3210;48.708;9.030;2024-03-06T22:06:08;47.20;;;26.53;;
6354;SDS011;3210;48.708;9.030;2024-03-06T22:08:41;61.33;;;28.80;;
6354;SDS011;3210;48.708;9.030;2024-03-06T22:11:09;55.77;;;27.83;;
6354;SDS011;3210;48.708;9.030;2024-03-06T22:13:39;53.00;;;26.60;;
6354;SDS011;3210;48.708;9.030;2024-03-06T22:16:06;48.23;;;25.10;;
6354;SDS011;3210;48.708;9.030;2024-03-06T22:18:34;51.67;;;28.00;;
6354;SDS011;3210;48.708;9.030;2024-03-06T22:21:06;50.27;;;25.80;;
6354;SDS011;3210;48.708;9.030;2024-03-06T22:23:44;51.17;;;23.03;;
6354;SDS011;3210;48.708;9.030;2024-03-06T22:26:15;53.60;;;26.80;;
6354;SDS011;3210;48.708;9.030;2024-03-06T22:28:56;53.90;;;26.20;;
6354;SDS011;3210;48.708;9.030;2024-03-06T22:31:28;50.50;;;27.67;;
6354;SDS011;3210;48.708;9.030;2024-03-06T22:34:05;59.90;;;26.70;;
6354;SDS011;3210;48.708;9.030;2024-03-06T22:40:04;55.53;;;26.00;;
6354;SDS011;3210;48.708;9.030;2024-03-06T22:42:39;51.77;;;26.97;;
6354;SDS011;3210;48.708;9.030;2024-03-06T22:45:21;59.17;;;28.40;;
6354;SDS011;3210;48.708;9.030;2024-03-06T22:47:52;61.10;;;26.97;;
6354;SDS011;3210;48.708;9.030;2024-03-06T22:50:29;53.50;;;26.97;;
6354;SDS011;3210;48.708;9.030;2024-03-06T22:53:07;51.03;;;25.47;;
6354;SDS011;3210;48.708;9.030;2024-03-06T22:55:37;56.07;;;24.87;;
6354;SDS011;3210;48.708;9.030;2024-03-06T22:58:05;54.13;;;27.67;;
6354;SDS011;3210;48.708;9.030;2024-03-06T23:00:40;50.97;;;26.93;;
6354;SDS011;3210;48.708;9.030;2024-03-06T23:03:10;60.43;;;27.67;;
6354;SDS011;3210;48.708;9.030;2024-03-06T23:05:38;53.27;;;24.37;;
6354;SDS011;3210;48.708;9.030;2024-03-06T23:08:06;52.00;;;28.00;;
6354;SDS011;3210;48.708;9.030;2024-03-06T23:10:32;56.87;;;28.77;;
6354;SDS011;3210;48.708;9.030;2024-03-06T23:13:00;44.43;;;24.07;;
6354;SDS011;3210;48.708;9.030;2024-03-06T23:18:25;53.10;;;29.10;;
6354;SDS011;3210;48.708;9.030;2024-03-06T23:20:52;56.57;;;27.73;;
6354;SDS011;3210;48.708;9.030;2024-03-06T23:23:20;57.53;;;24.40;;
6354;SDS011;3210;48.708;9.030;2024-03-06T23:25:47;56.23;;;26.80;;
6354;SDS011;3210;48.708;9.030;2024-03-06T23:28:15;50.30;;;27.30;;
6354;SDS011;3210;48.708;9.030;2024-03-06T23:30:42;54.63;;;26.80;;
6354;SDS011;3210;48.708;9.030;2024-03-06T23:33:12;51.20;;;24.70;;
6354;SDS011;3210;48.708;9.030;2024-03-06T23:35:39;46.60;;;25.97;;
6354;SDS011;3210;48.708;9.030;2024-03-06T23:38:07;45.40;;;23.00;;
6354;SDS011;3210;48.708;9.030;2024-03-06T23:40:34;53.57;;;25.97;;
6354;SDS011;3210;48.708;9.030;2024-03-06T23:43:03;43.33;;;23.87;;
6354;SDS011;3210;48.708;9.030;2024-03-06T23:45:32;52.70;;;27.60;;
6354;SDS011;3210;48.708;9.030;2024-03-06T23:48:04;46.43;;;22.97;;
6354;SDS011;3210;48.708;9.030;2024-03-06T23:50:33;57.87;;;27.73;;
6354;SDS011;3210;48.708;9.030;2024-03-06T23:53:05;61.87;;;27.77;;
6354;SDS011;3210;48.708;9.030;2024-03-06T23:55:41;50.60;;;27.00;;
6354;SDS011;3210;48.708;9.030;2024-03-06T23:58:14;56.40;;;25.90;;
